createdAt,value
2022-09-06T00:03:50.895Z,1.50
2022-09-06T00:06:19.579Z,1.60
2022-09-06T00:08:46.971Z,1.30
2022-09-06T00:11:13.826Z,1.50
2022-09-06T00:16:12.884Z,1.40
2022-09-06T00:18:39.775Z,1.30
2022-09-06T00:23:39.811Z,1.30
2022-09-06T00:26:06.591Z,1.80
2022-09-06T00:31:08.409Z,1.60
2022-09-06T00:33:35.303Z,1.40
2022-09-06T00:38:28.842Z,1.20
2022-09-06T00:43:22.439Z,1.40
2022-09-06T00:45:49.261Z,1.20
2022-09-06T00:50:43.350Z,1.50
2022-09-06T00:53:10.132Z,1.30
2022-09-06T00:58:03.800Z,1.40
2022-09-06T01:00:30.617Z,1.30
2022-09-06T01:05:25.369Z,2.00
2022-09-06T01:08:15.563Z,1.70
2022-09-06T01:10:50.273Z,1.30
2022-09-06T01:13:23.847Z,1.50
2022-09-06T01:16:35.168Z,1.60
2022-09-06T01:19:17.940Z,1.40
2022-09-06T01:21:47.850Z,1.50
2022-09-06T01:24:30.984Z,1.20
2022-09-06T01:27:42.459Z,1.50
2022-09-06T01:30:10.222Z,1.40
2022-09-06T01:32:39.842Z,1.20
2022-09-06T01:35:28.983Z,1.30
2022-09-06T01:37:56.264Z,1.40
2022-09-06T01:40:23.100Z,1.70
2022-09-06T01:45:25.618Z,1.20
2022-09-06T01:48:29.544Z,1.50
2022-09-06T01:50:59.210Z,1.70
2022-09-06T01:53:59.763Z,1.40
2022-09-06T01:56:39.588Z,1.30
2022-09-06T01:59:31.025Z,1.40
2022-09-06T02:02:15.224Z,1.00
2022-09-06T02:05:17.153Z,1.20
2022-09-06T02:07:44.000Z,1.10
2022-09-06T02:12:53.534Z,1.00
2022-09-06T02:15:25.705Z,1.60
2022-09-06T02:18:17.011Z,1.90
2022-09-06T02:20:48.246Z,2.30
2022-09-06T02:23:15.001Z,2.60
2022-09-06T02:25:43.883Z,2.50
2022-09-06T02:28:10.641Z,3.00
2022-09-06T02:30:42.876Z,2.80
2022-09-06T02:33:13.770Z,3.90
2022-09-06T02:35:51.562Z,3.40
2022-09-06T02:38:18.639Z,4.80
2022-09-06T02:40:45.789Z,4.70
2022-09-06T02:43:12.670Z,5.50
2022-09-06T02:48:06.316Z,5.80
2022-09-06T02:53:02.445Z,7.40
2022-09-06T02:55:29.186Z,6.70
2022-09-06T02:57:55.933Z,7.90
2022-09-06T03:02:49.510Z,6.50
2022-09-06T03:07:43.018Z,6.30
2022-09-06T03:10:09.971Z,6.90
2022-09-06T03:12:36.718Z,6.10
2022-09-06T03:15:04.026Z,6.30
2022-09-06T03:17:31.292Z,5.80
2022-09-06T03:19:58.029Z,7.20
2022-09-06T03:22:24.782Z,5.80
2022-09-06T03:24:51.515Z,5.60
2022-09-06T03:29:44.975Z,6.70
2022-09-06T03:32:11.781Z,4.70
2022-09-06T03:37:05.198Z,5.80
2022-09-06T03:41:58.667Z,6.10
2022-09-06T03:44:25.415Z,6.10
2022-09-06T03:49:19.496Z,5.60
2022-09-06T03:55:06.293Z,6.00
2022-09-06T03:57:34.271Z,6.20
2022-09-06T04:00:01.081Z,6.40
2022-09-06T04:02:38.261Z,6.80
2022-09-06T04:05:06.435Z,6.40
2022-09-06T04:07:33.555Z,8.40
2022-09-06T04:10:00.314Z,6.80
2022-09-06T04:14:53.777Z,7.00
2022-09-06T04:17:20.543Z,5.10
2022-09-06T04:22:13.949Z,4.30
2022-09-06T04:24:40.690Z,4.80
2022-09-06T04:29:34.126Z,4.50
2022-09-06T04:34:27.843Z,4.20
2022-09-06T04:39:21.374Z,5.00
2022-09-06T04:44:14.768Z,4.20
2022-09-06T04:49:08.443Z,4.50
2022-09-06T04:51:35.264Z,6.30
2022-09-06T04:56:46.461Z,5.60
2022-09-06T05:01:39.920Z,5.90
2022-09-06T05:06:33.555Z,5.50
2022-09-06T05:09:00.503Z,5.80
2022-09-06T05:11:27.731Z,5.20
2022-09-06T05:13:54.489Z,5.30
2022-09-06T05:18:48.140Z,5.50
2022-09-06T05:23:42.478Z,5.30
2022-09-06T05:26:09.379Z,5.90
2022-09-06T05:28:36.342Z,5.40
2022-09-06T05:31:08.165Z,5.00
2022-09-06T05:33:35.031Z,4.50
2022-09-06T05:38:29.805Z,5.70
2022-09-06T05:40:56.669Z,4.90
2022-09-06T05:45:50.540Z,4.10
2022-09-06T05:48:17.398Z,3.70
2022-09-06T05:53:11.018Z,4.00
2022-09-06T05:55:42.307Z,4.10
2022-09-06T05:58:09.822Z,3.40
2022-09-06T06:00:36.640Z,3.80
2022-09-06T06:05:32.324Z,3.30
2022-09-06T06:07:59.747Z,4.40
2022-09-06T06:10:26.600Z,4.50
2022-09-06T06:15:20.105Z,3.80
2022-09-06T06:20:13.715Z,3.50
2022-09-06T06:22:40.472Z,4.10
2022-09-06T06:27:35.393Z,3.00
2022-09-06T06:30:02.186Z,3.60
2022-09-06T06:34:55.673Z,2.90
2022-09-06T06:39:49.516Z,2.40
2022-09-06T06:42:16.541Z,1.90
2022-09-06T06:44:49.579Z,3.20
2022-09-06T06:49:43.049Z,2.20
2022-09-06T06:54:37.533Z,2.40
2022-09-06T06:57:04.635Z,2.30
2022-09-06T06:59:31.508Z,2.20
2022-09-06T07:04:25.698Z,2.20
2022-09-06T07:12:27.170Z,1.90
2022-09-06T07:17:20.835Z,1.90
2022-09-06T07:22:34.286Z,1.70
2022-09-06T07:30:14.576Z,3.00
2022-09-06T07:35:08.564Z,2.70
2022-09-06T07:37:35.496Z,2.50
2022-09-06T07:40:03.527Z,2.70
2022-09-06T07:42:35.675Z,2.40
2022-09-06T07:45:04.806Z,2.50
2022-09-06T07:53:11.222Z,3.30
2022-09-06T07:55:41.931Z,1.90
2022-09-06T08:00:35.580Z,1.80
2022-09-06T08:03:02.402Z,1.50
2022-09-06T08:11:02.766Z,2.20
2022-09-06T08:13:29.688Z,2.00
2022-09-06T08:16:07.110Z,2.80
2022-09-06T08:18:34.966Z,2.90
2022-09-06T08:21:12.820Z,2.50
2022-09-06T08:23:42.827Z,3.30
2022-09-06T08:26:09.642Z,1.60
2022-09-06T08:31:10.719Z,1.60
2022-09-06T08:33:38.169Z,1.60
2022-09-06T08:36:05.713Z,1.40
2022-09-06T08:38:32.683Z,1.80
2022-09-06T08:41:12.916Z,1.20
2022-09-06T08:43:40.149Z,1.80
2022-09-06T08:46:07.636Z,1.70
2022-09-06T08:48:37.045Z,1.50
2022-09-06T08:51:42.900Z,1.80
2022-09-06T08:54:18.747Z,1.90
2022-09-06T08:57:03.698Z,2.20
2022-09-06T08:59:35.978Z,1.50
2022-09-06T09:02:13.351Z,1.80
2022-09-06T09:04:57.020Z,1.70
2022-09-06T09:07:52.401Z,1.80
2022-09-06T09:10:22.774Z,1.90
2022-09-06T09:12:49.551Z,1.90
2022-09-06T09:15:17.902Z,1.60
2022-09-06T09:17:44.864Z,2.30
2022-09-06T09:20:11.692Z,2.80
2022-09-06T09:22:39.198Z,2.10
2022-09-06T09:25:06.694Z,1.70
2022-09-06T09:27:33.563Z,1.40
2022-09-06T09:32:50.090Z,1.70
2022-09-06T09:35:23.563Z,1.80
2022-09-06T09:38:04.993Z,2.10
2022-09-06T09:40:40.192Z,2.50
2022-09-06T09:43:26.200Z,2.30
2022-09-06T09:46:11.735Z,2.40
2022-09-06T09:48:38.959Z,4.70
2022-09-06T09:51:27.477Z,5.70
2022-09-06T09:53:57.554Z,7.00
2022-09-06T09:56:34.833Z,6.10
2022-09-06T10:01:31.894Z,5.90
2022-09-06T10:07:11.248Z,4.90
2022-09-06T10:10:05.295Z,7.20
2022-09-06T10:12:36.251Z,6.90
2022-09-06T10:15:07.029Z,9.50
2022-09-06T10:17:53.160Z,8.80
2022-09-06T10:20:20.573Z,10.70
2022-09-06T10:23:02.283Z,11.00
2022-09-06T10:25:49.206Z,12.10
2022-09-06T10:28:36.878Z,13.40
2022-09-06T10:31:22.504Z,12.50
2022-09-06T10:34:18.571Z,11.60
2022-09-06T10:37:17.088Z,13.00
2022-09-06T10:40:07.318Z,13.10
2022-09-06T10:42:47.995Z,12.90
2022-09-06T10:45:39.482Z,14.10
2022-09-06T10:48:14.861Z,14.70
2022-09-06T10:51:08.647Z,15.40
2022-09-06T10:53:44.494Z,18.90
2022-09-06T10:56:12.386Z,19.30
2022-09-06T11:02:03.215Z,23.60
2022-09-06T11:07:28.534Z,29.40
2022-09-06T11:10:02.662Z,31.80
2022-09-06T11:12:48.278Z,32.10
2022-09-06T11:15:15.477Z,34.50
2022-09-06T11:18:03.611Z,33.90
2022-09-06T11:20:41.333Z,32.60
2022-09-06T11:23:23.491Z,33.70
2022-09-06T11:26:18.437Z,40.20
2022-09-06T11:28:47.998Z,55.10
2022-09-06T11:34:23.381Z,68.90
2022-09-06T11:36:57.186Z,58.60
2022-09-06T11:42:47.754Z,63.50
2022-09-06T11:45:22.484Z,72.80
2022-09-06T11:47:52.852Z,75.30
2022-09-06T11:50:24.364Z,81.90
2022-09-06T11:53:06.549Z,89.10
2022-09-06T11:55:37.488Z,92.80
2022-09-06T11:58:39.631Z,87.20
2022-09-06T12:01:12.486Z,85.10
2022-09-06T12:04:05.134Z,82.10
2022-09-06T12:06:40.949Z,80.40
2022-09-06T12:09:42.943Z,80.40
2022-09-06T12:12:13.459Z,77.70
2022-09-06T12:14:46.206Z,79.00
2022-09-06T12:17:13.075Z,77.50
2022-09-06T12:19:55.290Z,79.40
2022-09-06T12:22:28.865Z,68.50
2022-09-06T12:24:55.675Z,61.40
2022-09-06T12:27:53.093Z,59.80
2022-09-06T12:30:42.637Z,59.20
2022-09-06T12:33:31.842Z,56.80
2022-09-06T12:36:24.390Z,57.10
2022-09-06T12:39:14.929Z,56.40
2022-09-06T12:41:44.212Z,54.80
2022-09-06T12:44:11.082Z,54.30
2022-09-06T12:46:39.996Z,52.30
2022-09-06T12:49:08.690Z,51.90
2022-09-06T12:51:39.289Z,47.20
2022-09-06T12:54:18.235Z,42.50
2022-09-06T12:56:45.072Z,42.50
2022-09-06T12:59:16.997Z,44.10
2022-09-06T13:01:55.084Z,44.10
2022-09-06T13:04:40.424Z,56.50
2022-09-06T13:07:09.648Z,70.80
2022-09-06T13:09:36.456Z,41.50
2022-09-06T13:12:06.600Z,32.30
2022-09-06T13:14:33.399Z,31.00
2022-09-06T13:17:00.262Z,34.00
2022-09-06T13:19:37.884Z,33.50
2022-09-06T13:22:07.570Z,33.80
2022-09-06T13:24:34.344Z,37.20
2022-09-06T13:27:01.254Z,35.70
2022-09-06T13:29:31.847Z,36.30
2022-09-06T13:31:59.859Z,33.20
2022-09-06T13:34:28.165Z,33.80
2022-09-06T13:37:05.612Z,32.00
2022-09-06T13:39:33.915Z,29.40
2022-09-06T13:42:05.850Z,30.70
2022-09-06T13:44:33.770Z,33.90
2022-09-06T13:47:00.601Z,34.40
2022-09-06T13:49:28.332Z,33.80
2022-09-06T13:51:58.275Z,33.50
2022-09-06T13:54:25.149Z,33.40
2022-09-06T13:56:52.018Z,31.50
2022-09-06T13:59:19.015Z,30.70
2022-09-06T14:01:47.016Z,28.80
2022-09-06T14:04:15.823Z,30.20
2022-09-06T14:06:42.800Z,28.10
2022-09-06T14:09:09.999Z,28.00
2022-09-06T14:11:36.978Z,25.50
2022-09-06T14:14:04.051Z,24.00
2022-09-06T14:16:31.627Z,24.00
2022-09-06T14:18:58.458Z,24.90
2022-09-06T14:21:25.228Z,21.60
2022-09-06T14:23:52.650Z,22.20
2022-09-06T14:26:21.041Z,20.60
2022-09-06T14:28:48.031Z,18.10
2022-09-06T14:31:16.649Z,18.10
2022-09-06T14:33:43.530Z,17.40
2022-09-06T14:36:12.002Z,16.10
2022-09-06T14:38:40.077Z,18.90
2022-09-06T14:41:07.587Z,22.60
2022-09-06T14:43:34.921Z,24.80
2022-09-06T14:46:12.856Z,24.20
2022-09-06T14:48:42.265Z,25.80
2022-09-06T14:51:22.064Z,27.40
2022-09-06T14:53:50.351Z,27.10
2022-09-06T14:56:17.059Z,26.20
2022-09-06T14:58:43.920Z,27.50
2022-09-06T15:01:15.478Z,28.90
2022-09-06T15:03:43.521Z,26.70
2022-09-06T15:06:10.333Z,24.80
2022-09-06T15:08:37.946Z,23.10
2022-09-06T15:11:08.231Z,21.00
2022-09-06T15:13:37.105Z,21.90
2022-09-06T15:16:07.796Z,23.30
2022-09-06T15:18:35.143Z,22.10
2022-09-06T15:21:09.768Z,22.40
2022-09-06T15:23:36.773Z,21.60
2022-09-06T15:26:03.784Z,19.90
2022-09-06T15:28:30.482Z,19.90
2022-09-06T15:30:57.277Z,18.60
2022-09-06T15:33:24.082Z,15.40
2022-09-06T15:35:54.697Z,12.60
2022-09-06T15:38:21.395Z,13.60
2022-09-06T15:40:48.134Z,13.10
2022-09-06T15:43:14.884Z,13.80
2022-09-06T15:45:49.394Z,13.20
2022-09-06T15:48:17.086Z,12.70
2022-09-06T15:50:51.259Z,11.40
2022-09-06T15:53:19.500Z,12.60
2022-09-06T15:55:58.248Z,13.30
2022-09-06T15:58:26.680Z,13.40
2022-09-06T16:01:29.138Z,13.80
2022-09-06T16:04:03.609Z,13.90
2022-09-06T16:06:39.611Z,15.40
2022-09-06T16:11:54.458Z,14.40
2022-09-06T16:14:21.692Z,14.10
2022-09-06T16:16:48.433Z,14.10
2022-09-06T16:21:42.639Z,13.40
2022-09-06T16:24:11.028Z,14.10
2022-09-06T16:26:39.511Z,12.60
2022-09-06T16:29:07.136Z,13.20
2022-09-06T16:31:37.758Z,13.10
2022-09-06T16:34:07.900Z,12.90
2022-09-06T16:36:34.699Z,14.40
2022-09-06T16:41:31.854Z,12.40
2022-09-06T16:43:58.850Z,12.30
2022-09-06T16:46:26.108Z,12.70
2022-09-06T16:48:54.953Z,11.70
2022-09-06T16:51:23.019Z,11.50
2022-09-06T16:53:49.743Z,10.90
2022-09-06T16:58:48.579Z,12.20
2022-09-06T17:01:15.793Z,10.50
2022-09-06T17:03:42.570Z,11.20
2022-09-06T17:08:36.526Z,11.40
2022-09-06T17:11:08.680Z,12.10
2022-09-06T17:13:35.557Z,12.50
2022-09-06T17:16:22.377Z,11.70
2022-09-06T17:18:50.017Z,12.50
2022-09-06T17:21:16.769Z,11.00
2022-09-06T17:28:38.387Z,10.70
2022-09-06T17:31:05.793Z,11.30
2022-09-06T17:33:33.093Z,11.40
2022-09-06T17:36:11.818Z,10.70
2022-09-06T17:38:39.464Z,11.70
2022-09-06T17:41:06.585Z,11.80
2022-09-06T17:43:35.782Z,12.50
2022-09-06T17:46:03.829Z,11.50
2022-09-06T17:48:30.728Z,10.80
2022-09-06T17:53:25.073Z,10.90
2022-09-06T17:55:52.335Z,11.30
2022-09-06T17:58:19.983Z,11.40
2022-09-06T18:00:46.740Z,11.10
2022-09-06T18:03:13.517Z,11.80
2022-09-06T18:08:07.871Z,13.00
2022-09-06T18:10:37.896Z,14.90
2022-09-06T18:13:05.857Z,13.10
2022-09-06T18:15:32.877Z,12.90
2022-09-06T18:17:59.657Z,17.30
2022-09-06T18:22:53.341Z,16.10
2022-09-06T18:25:20.082Z,17.30
2022-09-06T18:30:14.967Z,19.40
2022-09-06T18:32:42.013Z,16.50
2022-09-06T18:35:08.901Z,17.80
2022-09-06T18:40:04.832Z,19.20
2022-09-06T18:42:31.780Z,21.50
2022-09-06T18:44:58.558Z,18.50
2022-09-06T18:49:52.161Z,21.20
2022-09-06T18:54:49.152Z,20.70
2022-09-06T18:57:17.256Z,20.50
2022-09-06T18:59:44.588Z,20.90
2022-09-06T19:02:11.647Z,23.50
2022-09-06T19:04:38.492Z,23.70
2022-09-06T19:09:32.070Z,24.60
2022-09-06T19:14:25.783Z,25.90
2022-09-06T19:16:54.237Z,24.70
2022-09-06T19:19:21.886Z,24.70
2022-09-06T19:21:48.665Z,24.80
2022-09-06T19:26:43.978Z,24.50
2022-09-06T19:29:15.825Z,25.20
2022-09-06T19:31:42.947Z,24.30
2022-09-06T19:34:09.853Z,25.20
2022-09-06T19:39:07.117Z,24.80
2022-09-06T19:41:36.191Z,24.00
2022-09-06T19:44:05.737Z,27.70
2022-09-06T19:46:32.982Z,26.90
2022-09-06T19:49:00.579Z,25.80
2022-09-06T19:51:27.532Z,28.10
2022-09-06T19:56:23.725Z,28.10
2022-09-06T19:58:55.780Z,27.00
2022-09-06T20:01:23.025Z,28.30
2022-09-06T20:03:50.099Z,26.40
2022-09-06T20:06:16.885Z,28.00
2022-09-06T20:11:11.078Z,27.60
2022-09-06T20:13:37.930Z,27.90
2022-09-06T20:18:31.912Z,26.60
2022-09-06T20:23:29.140Z,25.90
2022-09-06T20:26:01.920Z,25.20
2022-09-06T20:28:28.888Z,25.20
2022-09-06T20:31:00.632Z,25.40
2022-09-06T20:33:27.392Z,26.30
2022-09-06T20:35:58.220Z,26.00
2022-09-06T20:38:25.377Z,25.00
2022-09-06T20:41:06.465Z,26.80
2022-09-06T20:43:36.434Z,25.10
2022-09-06T20:46:04.784Z,26.10
2022-09-06T20:48:34.914Z,26.60
2022-09-06T20:51:03.542Z,25.50
2022-09-06T20:53:31.588Z,25.10
2022-09-06T20:55:59.774Z,24.90
2022-09-06T20:58:26.899Z,23.70
2022-09-06T21:00:54.034Z,24.20
2022-09-06T21:03:21.084Z,24.00
2022-09-06T21:05:47.843Z,23.60
2022-09-06T21:10:41.702Z,23.90
2022-09-06T21:13:09.011Z,22.60
2022-09-06T21:15:36.574Z,23.80
2022-09-06T21:18:04.640Z,22.80
2022-09-06T21:20:31.466Z,23.40
2022-09-06T21:25:24.875Z,21.90
2022-09-06T21:27:55.536Z,22.10
2022-09-06T21:30:22.612Z,22.30
2022-09-06T21:32:49.436Z,23.30
2022-09-06T21:37:42.847Z,21.00
2022-09-06T21:40:09.844Z,22.40
2022-09-06T21:42:36.689Z,22.40
2022-09-06T21:47:31.422Z,23.70
2022-09-06T21:49:58.239Z,22.30
2022-09-06T21:54:51.835Z,23.30
2022-09-06T21:57:19.774Z,23.80
2022-09-06T21:59:46.507Z,24.70
2022-09-06T22:02:14.382Z,22.50
2022-09-06T22:04:41.121Z,24.30
2022-09-06T22:07:07.862Z,25.60
2022-09-06T22:09:35.628Z,26.80
2022-09-06T22:12:02.576Z,24.00
2022-09-06T22:14:29.327Z,25.50
2022-09-06T22:16:56.036Z,26.60
2022-09-06T22:19:34.867Z,26.10
2022-09-06T22:22:01.673Z,24.60
2022-09-06T22:26:55.132Z,25.30
2022-09-06T22:29:22.716Z,26.00
2022-09-06T22:31:49.545Z,28.30
2022-09-06T22:36:43.136Z,27.40
2022-09-06T22:39:09.911Z,26.60
2022-09-06T22:44:03.861Z,28.40
2022-09-06T22:46:31.053Z,27.40
2022-09-06T22:48:58.390Z,28.30
2022-09-06T22:51:25.137Z,27.00
2022-09-06T22:53:54.577Z,28.10
2022-09-06T22:56:21.373Z,29.10
2022-09-06T23:01:15.532Z,25.60
2022-09-06T23:03:42.792Z,27.70
2022-09-06T23:06:09.790Z,26.20
2022-09-06T23:08:37.238Z,27.40
2022-09-06T23:11:11.776Z,26.60
2022-09-06T23:13:38.654Z,27.90
2022-09-06T23:18:36.926Z,27.10
2022-09-06T23:21:14.674Z,26.60
2022-09-06T23:23:41.792Z,27.20
2022-09-06T23:26:19.598Z,25.20
2022-09-06T23:28:46.395Z,25.10
2022-09-06T23:33:41.688Z,26.90
2022-09-06T23:36:10.063Z,26.50
2022-09-06T23:38:37.621Z,27.00
2022-09-06T23:41:04.475Z,25.40
2022-09-06T23:45:58.529Z,23.80
2022-09-06T23:48:25.514Z,26.00
2022-09-06T23:50:52.273Z,23.60
2022-09-06T23:53:19.124Z,25.40
2022-09-06T23:58:12.521Z,25.30
